Time;durP1;ratioP1;P1;durP2;ratioP2;P2;SDS_P1;SDS_P2;PMS_P1;PMS_P2;Temp;Humidity;BMP_temperature;BMP_pressure;BME280_temperature;BME280_humidity;BME280_pressure;Samples;Min_cycle;Max_cycle;Signal;HPM_P1;HPM_P2
2023/07/17 00:01:30;;;;;;;4.87;2.93;;;;;;;;;;8301301;28;20155;-61
2023/07/17 00:05:30;;;;;;;4.10;3.30;;;;;;;;;;8302870;28;20107;-61
2023/07/17 00:09:31;;;;;;;4.93;2.97;;;;;;;;;;8301426;28;20017;-61
2023/07/17 00:13:31;;;;;;;5.15;3.17;;;;;;;;;;8302845;28;20029;-61
2023/07/17 00:17:32;;;;;;;6.40;3.17;;;;;;;;;;8302384;28;20462;-61
2023/07/17 00:21:32;;;;;;;4.80;3.30;;;;;;;;;;8302814;28;20028;-60
2023/07/17 00:25:32;;;;;;;3.58;2.70;;;;;;;;;;8303959;28;20446;-61
2023/07/17 00:29:33;;;;;;;4.00;2.70;;;;;;;;;;8297251;28;20413;-61
2023/07/17 00:33:33;;;;;;;4.90;3.10;;;;;;;;;;8302805;28;20044;-61
2023/07/17 00:37:33;;;;;;;5.72;2.53;;;;;;;;;;8302505;28;20033;-61
2023/07/17 00:41:33;;;;;;;5.38;3.05;;;;;;;;;;8301957;28;20044;-61
2023/07/17 00:45:33;;;;;;;6.22;2.65;;;;;;;;;;8302887;28;20572;-61
2023/07/17 00:49:34;;;;;;;4.30;2.80;;;;;;;;;;8301715;28;20025;-61
2023/07/17 00:53:34;;;;;;;5.73;2.77;;;;;;;;;;8304044;28;20036;-61
2023/07/17 00:57:34;;;;;;;5.63;2.90;;;;;;;;;;8302411;28;20124;-60
2023/07/17 01:01:35;;;;;;;5.40;2.90;;;;;;;;;;8299584;28;20040;-61
2023/07/17 01:05:36;;;;;;;7.18;3.17;;;;;;;;;;8302084;28;20266;-61
2023/07/17 01:09:36;;;;;;;6.28;3.38;;;;;;;;;;8304266;28;20105;-60
2023/07/17 01:13:46;;;;;;;7.87;3.10;;;;;;;;;;8300011;28;20029;-61
2023/07/17 01:17:46;;;;;;;5.07;3.10;;;;;;;;;;8301639;28;20336;-60
2023/07/17 01:21:52;;;;;;;5.67;3.10;;;;;;;;;;8299864;28;20116;-60
2023/07/17 01:25:54;;;;;;;10.27;3.13;;;;;;;;;;8299893;28;20170;-61
2023/07/17 01:29:54;;;;;;;5.88;3.28;;;;;;;;;;8298190;28;20033;-61
2023/07/17 01:33:54;;;;;;;6.32;2.90;;;;;;;;;;8301682;28;20037;-60
2023/07/17 01:37:55;;;;;;;5.53;3.05;;;;;;;;;;8305203;28;20029;-61
2023/07/17 01:41:55;;;;;;;6.57;3.43;;;;;;;;;;8304356;28;20025;-60
2023/07/17 01:45:55;;;;;;;5.22;3.10;;;;;;;;;;8307775;28;20033;-60
2023/07/17 01:49:55;;;;;;;7.15;3.38;;;;;;;;;;8308229;28;20136;-60
2023/07/17 01:53:55;;;;;;;5.97;3.55;;;;;;;;;;8308286;28;20103;-60
2023/07/17 01:57:57;;;;;;;6.45;3.40;;;;;;;;;;8305993;28;20041;-60
2023/07/17 02:01:57;;;;;;;5.13;3.13;;;;;;;;;;8306350;28;20038;-60
2023/07/17 02:05:58;;;;;;;6.90;3.70;;;;;;;;;;8307834;28;20143;-61
2023/07/17 02:09:58;;;;;;;7.35;3.42;;;;;;;;;;8304920;28;20382;-60
2023/07/17 02:13:58;;;;;;;9.80;4.07;;;;;;;;;;8305939;28;20037;-61
2023/07/17 02:17:58;;;;;;;6.55;3.40;;;;;;;;;;8305970;28;20779;-61
2023/07/17 02:21:58;;;;;;;4.82;3.30;;;;;;;;;;8305762;28;20059;-61
2023/07/17 02:25:59;;;;;;;6.57;3.38;;;;;;;;;;8304667;28;20037;-61
2023/07/17 02:29:59;;;;;;;7.13;3.55;;;;;;;;;;8306535;28;20167;-61
2023/07/17 02:33:59;;;;;;;8.07;3.33;;;;;;;;;;8306855;28;20080;-60
2023/07/17 02:37:59;;;;;;;7.85;3.25;;;;;;;;;;8304767;28;20056;-60
2023/07/17 02:42:00;;;;;;;6.23;3.20;;;;;;;;;;8304935;28;20051;-61
2023/07/17 02:46:00;;;;;;;6.70;3.35;;;;;;;;;;8306165;28;20045;-60
2023/07/17 02:50:01;;;;;;;8.98;2.78;;;;;;;;;;8306279;28;20116;-61
2023/07/17 02:54:01;;;;;;;9.52;3.35;;;;;;;;;;8306504;28;20154;-61
2023/07/17 02:58:01;;;;;;;5.33;3.27;;;;;;;;;;8304637;28;20119;-60
2023/07/17 03:02:02;;;;;;;6.78;3.05;;;;;;;;;;8306824;28;20382;-61
2023/07/17 03:06:02;;;;;;;6.68;2.92;;;;;;;;;;8306063;28;20327;-62
2023/07/17 03:10:03;;;;;;;6.10;3.15;;;;;;;;;;8307251;28;20128;-60
2023/07/17 03:14:03;;;;;;;7.32;2.85;;;;;;;;;;8302809;28;20035;-61
2023/07/17 03:18:03;;;;;;;7.85;3.30;;;;;;;;;;8303209;28;20044;-60
2023/07/17 03:22:03;;;;;;;6.15;2.95;;;;;;;;;;8305306;28;20549;-61
2023/07/17 03:26:04;;;;;;;5.15;2.88;;;;;;;;;;8305341;28;20044;-60
2023/07/17 03:30:04;;;;;;;6.90;3.60;;;;;;;;;;8304502;28;20036;-61
2023/07/17 03:34:04;;;;;;;7.85;3.10;;;;;;;;;;8306944;28;20263;-60
2023/07/17 03:38:05;;;;;;;5.95;2.88;;;;;;;;;;8301635;28;20810;-60
2023/07/17 03:42:10;;;;;;;5.33;3.13;;;;;;;;;;8303976;28;20025;-61
2023/07/17 03:46:10;;;;;;;5.20;2.83;;;;;;;;;;8302378;28;20271;-61
2023/07/17 03:50:10;;;;;;;4.43;3.22;;;;;;;;;;8304096;28;20067;-61
2023/07/17 03:54:11;;;;;;;5.60;3.10;;;;;;;;;;8302520;28;20123;-61
2023/07/17 03:58:11;;;;;;;7.93;3.15;;;;;;;;;;8303987;28;20029;-61
2023/07/17 04:02:11;;;;;;;6.10;3.30;;;;;;;;;;8301471;28;20037;-61
2023/07/17 04:06:11;;;;;;;6.82;3.20;;;;;;;;;;8304137;28;20802;-60
2023/07/17 04:10:12;;;;;;;4.90;3.40;;;;;;;;;;8303253;28;20021;-61
2023/07/17 04:14:12;;;;;;;5.13;3.03;;;;;;;;;;8301772;28;20030;-61
2023/07/17 04:18:12;;;;;;;5.73;3.23;;;;;;;;;;8300708;28;20441;-61
2023/07/17 04:22:12;;;;;;;4.88;2.92;;;;;;;;;;8303505;28;20025;-61
2023/07/17 04:26:12;;;;;;;6.75;3.25;;;;;;;;;;8304107;28;20116;-61
2023/07/17 04:30:13;;;;;;;4.50;2.60;;;;;;;;;;8302131;28;20032;-61
2023/07/17 04:34:13;;;;;;;10.05;3.20;;;;;;;;;;8302453;28;20032;-61
2023/07/17 04:38:14;;;;;;;5.85;3.03;;;;;;;;;;8298549;28;20090;-61
2023/07/17 04:42:14;;;;;;;6.85;4.00;;;;;;;;;;8300705;28;20033;-62
2023/07/17 04:46:14;;;;;;;7.88;3.28;;;;;;;;;;8300382;28;20045;-61
2023/07/17 04:50:15;;;;;;;4.63;2.88;;;;;;;;;;8304202;28;20147;-61
2023/07/17 04:54:15;;;;;;;5.82;3.30;;;;;;;;;;8297845;28;20118;-60
2023/07/17 04:58:15;;;;;;;4.95;2.90;;;;;;;;;;8299713;28;20109;-61
2023/07/17 05:02:15;;;;;;;5.20;3.30;;;;;;;;;;8300018;28;20033;-61
2023/07/17 05:06:16;;;;;;;6.83;3.40;;;;;;;;;;8301356;28;20108;-61
2023/07/17 05:10:18;;;;;;;9.75;3.65;;;;;;;;;;8301538;28;20060;-60
2023/07/17 05:14:18;;;;;;;7.38;3.50;;;;;;;;;;8300774;28;20021;-61
2023/07/17 05:18:18;;;;;;;7.75;3.40;;;;;;;;;;8307457;28;20483;-61
2023/07/17 05:22:19;;;;;;;6.90;3.25;;;;;;;;;;8306534;28;20032;-60
2023/07/17 05:26:19;;;;;;;7.07;3.47;;;;;;;;;;8310212;28;20442;-61
2023/07/17 05:30:19;;;;;;;9.68;3.50;;;;;;;;;;8306532;28;20394;-61
2023/07/17 05:34:19;;;;;;;7.60;3.30;;;;;;;;;;8304069;28;20031;-61
2023/07/17 05:38:19;;;;;;;6.85;3.28;;;;;;;;;;8304304;28;20446;-61
2023/07/17 05:42:20;;;;;;;8.37;3.57;;;;;;;;;;8304955;28;20831;-61
2023/07/17 05:46:20;;;;;;;9.75;3.80;;;;;;;;;;8307341;28;20678;-61
2023/07/17 05:50:20;;;;;;;3.65;2.78;;;;;;;;;;8307204;28;20031;-61
2023/07/17 05:54:20;;;;;;;9.10;3.30;;;;;;;;;;8311136;28;20033;-60
2023/07/17 05:58:21;;;;;;;8.23;3.13;;;;;;;;;;8308988;28;20079;-61
2023/07/17 06:02:21;;;;;;;4.67;3.23;;;;;;;;;;8307142;28;20037;-60
2023/07/17 06:06:21;;;;;;;9.77;3.40;;;;;;;;;;8306404;28;20032;-61
2023/07/17 06:10:21;;;;;;;8.45;3.40;;;;;;;;;;8306551;28;20052;-60
2023/07/17 06:14:22;;;;;;;8.70;3.42;;;;;;;;;;8305925;28;20048;-61
2023/07/17 06:18:22;;;;;;;9.67;3.60;;;;;;;;;;8300120;28;20107;-60
2023/07/17 06:22:22;;;;;;;8.43;3.25;;;;;;;;;;8306817;28;20032;-61
2023/07/17 06:26:22;;;;;;;5.73;3.03;;;;;;;;;;8302119;28;20025;-60
2023/07/17 06:30:23;;;;;;;4.82;2.80;;;;;;;;;;8306484;28;20418;-61
2023/07/17 06:34:23;;;;;;;6.90;3.20;;;;;;;;;;8306836;28;20029;-61
2023/07/17 06:38:23;;;;;;;8.20;3.47;;;;;;;;;;8304701;28;20131;-61
2023/07/17 06:42:23;;;;;;;4.57;2.80;;;;;;;;;;8305288;28;20035;-61
2023/07/17 06:46:23;;;;;;;5.90;3.10;;;;;;;;;;8306469;28;20047;-61
2023/07/17 06:50:24;;;;;;;7.13;3.33;;;;;;;;;;8306593;28;20025;-61
2023/07/17 06:54:24;;;;;;;8.88;2.92;;;;;;;;;;8305040;28;20030;-61
2023/07/17 06:58:24;;;;;;;13.00;2.80;;;;;;;;;;8299997;28;20353;-61
2023/07/17 07:02:24;;;;;;;7.87;2.57;;;;;;;;;;8302115;28;20816;-61
2023/07/17 07:06:24;;;;;;;4.88;2.50;;;;;;;;;;8291359;28;20036;-61
2023/07/17 07:10:25;;;;;;;4.72;2.35;;;;;;;;;;8299834;28;20943;-61
2023/07/17 07:14:25;;;;;;;5.23;2.63;;;;;;;;;;8294492;28;20037;-57
2023/07/17 07:18:25;;;;;;;3.95;2.30;;;;;;;;;;8302470;28;20459;-61
2023/07/17 07:22:25;;;;;;;7.28;2.65;;;;;;;;;;8301697;28;20383;-61
2023/07/17 07:26:26;;;;;;;7.13;2.40;;;;;;;;;;8301846;28;20021;-61
2023/07/17 07:30:26;;;;;;;4.97;2.00;;;;;;;;;;8303422;28;20053;-61
2023/07/17 07:34:26;;;;;;;5.97;2.30;;;;;;;;;;8303524;28;20036;-61
2023/07/17 07:38:27;;;;;;;4.47;2.20;;;;;;;;;;8302178;28;20780;-61
2023/07/17 07:42:27;;;;;;;5.72;2.10;;;;;;;;;;8300290;28;20033;-61
2023/07/17 07:46:28;;;;;;;5.93;2.72;;;;;;;;;;8304567;28;20148;-61
2023/07/17 07:50:28;;;;;;;6.43;2.20;;;;;;;;;;8307002;28;20068;-61
2023/07/17 07:54:28;;;;;;;7.18;2.58;;;;;;;;;;8304201;28;20033;-61
2023/07/17 07:58:29;;;;;;;6.30;2.17;;;;;;;;;;8301987;28;20017;-61
2023/07/17 08:02:29;;;;;;;5.75;2.53;;;;;;;;;;8301471;28;20423;-61
2023/07/17 08:06:29;;;;;;;8.27;2.40;;;;;;;;;;8301880;28;20107;-61
2023/07/17 08:10:29;;;;;;;4.25;2.45;;;;;;;;;;8305221;28;20021;-61
2023/07/17 08:14:29;;;;;;;5.75;2.53;;;;;;;;;;8301559;28;20100;-61
2023/07/17 08:18:30;;;;;;;4.13;2.30;;;;;;;;;;8302503;28;20060;-61
2023/07/17 08:22:30;;;;;;;4.90;2.50;;;;;;;;;;8301847;28;20063;-61
2023/07/17 08:26:31;;;;;;;5.75;2.30;;;;;;;;;;8299147;28;20029;-61
2023/07/17 08:30:31;;;;;;;4.68;2.28;;;;;;;;;;8302408;28;20037;-61
2023/07/17 08:34:31;;;;;;;9.07;2.40;;;;;;;;;;8301352;28;20028;-61
2023/07/17 08:38:31;;;;;;;5.28;2.30;;;;;;;;;;8302432;28;20120;-61
2023/07/17 08:42:33;;;;;;;4.35;2.28;;;;;;;;;;8302992;28;20021;-61
2023/07/17 08:46:33;;;;;;;6.18;2.40;;;;;;;;;;8301219;28;20923;-61
2023/07/17 08:50:33;;;;;;;4.65;2.58;;;;;;;;;;8302932;28;20020;-61
2023/07/17 08:54:33;;;;;;;4.28;2.10;;;;;;;;;;8302104;28;20492;-61
2023/07/17 08:58:35;;;;;;;4.70;2.35;;;;;;;;;;8300683;28;20029;-61
2023/07/17 09:02:35;;;;;;;5.03;2.40;;;;;;;;;;8303495;28;20044;-61
2023/07/17 09:06:35;;;;;;;5.47;2.40;;;;;;;;;;8301902;28;20021;-61
2023/07/17 09:10:36;;;;;;;3.67;2.10;;;;;;;;;;8304828;28;20021;-61
2023/07/17 09:14:37;;;;;;;6.97;2.10;;;;;;;;;;8303622;28;20113;-61
2023/07/17 09:18:37;;;;;;;3.90;2.30;;;;;;;;;;8300421;28;20555;-61
2023/07/17 09:22:38;;;;;;;3.72;2.20;;;;;;;;;;8303830;28;20025;-61
2023/07/17 09:26:38;;;;;;;3.38;2.50;;;;;;;;;;8302882;28;20108;-61
2023/07/17 09:30:38;;;;;;;3.38;2.15;;;;;;;;;;8302668;28;20041;-61
2023/07/17 09:34:39;;;;;;;3.73;2.30;;;;;;;;;;8304020;28;20203;-61
2023/07/17 09:38:39;;;;;;;4.10;2.30;;;;;;;;;;8300230;28;20052;-61
2023/07/17 09:42:40;;;;;;;6.85;2.40;;;;;;;;;;8302474;28;20037;-61
2023/07/17 09:46:41;;;;;;;9.48;2.38;;;;;;;;;;8300750;28;20037;-61
2023/07/17 09:50:41;;;;;;;7.80;2.65;;;;;;;;;;8302897;28;20207;-61
2023/07/17 09:54:45;;;;;;;4.77;2.37;;;;;;;;;;8303093;28;20946;-61
2023/07/17 09:58:47;;;;;;;4.82;2.30;;;;;;;;;;8300812;28;20025;-61
2023/07/17 10:02:53;;;;;;;4.85;2.47;;;;;;;;;;8303658;28;20520;-61
2023/07/17 10:06:55;;;;;;;4.78;2.05;;;;;;;;;;8307011;28;20082;-61
2023/07/17 10:10:55;;;;;;;4.10;1.98;;;;;;;;;;8309301;28;20080;-61
2023/07/17 10:14:56;;;;;;;5.63;2.15;;;;;;;;;;8307101;28;20029;-61
2023/07/17 10:18:56;;;;;;;5.82;2.63;;;;;;;;;;8306455;28;20671;-61
2023/07/17 10:22:57;;;;;;;5.00;2.30;;;;;;;;;;8307841;28;20028;-61
2023/07/17 10:26:57;;;;;;;6.57;2.20;;;;;;;;;;8302498;28;20025;-61
2023/07/17 10:31:01;;;;;;;5.68;2.20;;;;;;;;;;8304744;28;20090;-61
2023/07/17 10:35:18;;;;;;;5.10;2.15;;;;;;;;;;8308941;28;20052;-61
2023/07/17 10:39:18;;;;;;;4.07;2.00;;;;;;;;;;8306639;28;20033;-61
2023/07/17 10:43:19;;;;;;;3.43;2.30;;;;;;;;;;8306160;28;20033;-61
2023/07/17 10:47:19;;;;;;;4.15;2.03;;;;;;;;;;8305517;28;20444;-61
2023/07/17 10:51:24;;;;;;;3.75;2.10;;;;;;;;;;8305333;28;20106;-61
2023/07/17 10:55:25;;;;;;;4.40;2.28;;;;;;;;;;8295764;28;20037;-61
2023/07/17 10:59:26;;;;;;;8.43;2.13;;;;;;;;;;8301085;28;20041;-61
2023/07/17 11:03:26;;;;;;;4.88;2.15;;;;;;;;;;8301001;28;20041;-61
2023/07/17 11:07:30;;;;;;;2.45;1.70;;;;;;;;;;8301477;28;20025;-61
2023/07/17 11:11:31;;;;;;;5.80;2.00;;;;;;;;;;8297869;28;21140;-61
2023/07/17 11:15:32;;;;;;;3.40;2.00;;;;;;;;;;8299698;28;20869;-61
2023/07/17 11:19:32;;;;;;;3.43;1.87;;;;;;;;;;8299368;28;20037;-61
2023/07/17 11:23:33;;;;;;;6.05;2.00;;;;;;;;;;8300870;28;20067;-61
2023/07/17 11:27:33;;;;;;;5.43;2.30;;;;;;;;;;8297022;28;20036;-61
2023/07/17 11:31:34;;;;;;;5.80;1.70;;;;;;;;;;8307170;28;20040;-61
2023/07/17 11:35:41;;;;;;;2.70;1.63;;;;;;;;;;8302901;28;20649;-61
2023/07/17 11:39:41;;;;;;;4.32;2.10;;;;;;;;;;8305895;28;20025;-61
2023/07/17 11:43:41;;;;;;;3.63;2.05;;;;;;;;;;8301755;28;20121;-61
2023/07/17 11:47:44;;;;;;;4.53;1.83;;;;;;;;;;8299553;28;20516;-61
2023/07/17 11:51:44;;;;;;;4.53;1.75;;;;;;;;;;8300755;28;20028;-61
2023/07/17 11:55:44;;;;;;;5.80;2.00;;;;;;;;;;8304059;28;20030;-61
2023/07/17 11:59:45;;;;;;;2.45;1.70;;;;;;;;;;8300107;28;20275;-61
2023/07/17 12:03:46;;;;;;;8.05;2.08;;;;;;;;;;8297892;28;20045;-61
2023/07/17 12:07:46;;;;;;;3.78;1.70;;;;;;;;;;8303325;28;20839;-61
2023/07/17 12:11:46;;;;;;;4.67;1.80;;;;;;;;;;8302340;28;20018;-61
2023/07/17 12:15:47;;;;;;;4.20;2.03;;;;;;;;;;8295559;28;20983;-61
2023/07/17 12:19:47;;;;;;;3.67;1.80;;;;;;;;;;8300471;28;20745;-61
2023/07/17 12:23:47;;;;;;;3.88;2.13;;;;;;;;;;8299564;28;20082;-61
2023/07/17 12:27:48;;;;;;;5.57;1.90;;;;;;;;;;8298584;28;20195;-61
2023/07/17 12:31:48;;;;;;;8.05;1.92;;;;;;;;;;8298777;28;20091;-61
2023/07/17 12:35:48;;;;;;;5.17;1.93;;;;;;;;;;8303192;28;20033;-61
2023/07/17 12:39:48;;;;;;;4.20;1.80;;;;;;;;;;8299926;28;20482;-61
2023/07/17 12:43:49;;;;;;;5.95;1.95;;;;;;;;;;8299927;28;20143;-61
2023/07/17 12:47:50;;;;;;;4.78;1.88;;;;;;;;;;8295985;28;20496;-61
2023/07/17 12:51:51;;;;;;;11.83;2.00;;;;;;;;;;8295708;28;20071;-61
2023/07/17 12:55:51;;;;;;;2.35;1.75;;;;;;;;;;8297798;28;20017;-61
2023/07/17 12:59:51;;;;;;;5.67;1.70;;;;;;;;;;8296670;28;20052;-61
2023/07/17 13:03:51;;;;;;;4.22;1.88;;;;;;;;;;8296321;28;20107;-61
2023/07/17 13:07:52;;;;;;;3.87;1.70;;;;;;;;;;8296137;28;20017;-61
2023/07/17 13:11:52;;;;;;;4.38;1.60;;;;;;;;;;8295453;28;20021;-61
2023/07/17 13:15:53;;;;;;;1.65;1.55;;;;;;;;;;8297696;28;20037;-61
2023/07/17 13:19:53;;;;;;;2.27;1.63;;;;;;;;;;8296575;28;20017;-61
2023/07/17 13:23:54;;;;;;;2.63;1.80;;;;;;;;;;8292735;28;20148;-61
2023/07/17 13:27:55;;;;;;;4.57;1.50;;;;;;;;;;8284417;28;20013;-61
2023/07/17 13:31:59;;;;;;;2.50;1.53;;;;;;;;;;8287819;28;20157;-61
2023/07/17 13:35:59;;;;;;;5.68;1.77;;;;;;;;;;8297285;28;20580;-61
2023/07/17 13:39:59;;;;;;;3.45;1.80;;;;;;;;;;8295689;28;20159;-61
2023/07/17 13:44:00;;;;;;;4.70;1.50;;;;;;;;;;8294502;28;20033;-61
2023/07/17 13:48:00;;;;;;;4.22;1.63;;;;;;;;;;8304845;28;20156;-61
2023/07/17 13:52:00;;;;;;;5.68;1.70;;;;;;;;;;8301975;28;20088;-61
2023/07/17 13:56:00;;;;;;;3.78;1.70;;;;;;;;;;8302731;28;20053;-61
2023/07/17 14:00:01;;;;;;;4.83;1.70;;;;;;;;;;8302204;28;20032;-61
2023/07/17 14:04:04;;;;;;;3.10;1.50;;;;;;;;;;8301726;28;20779;-61
2023/07/17 14:08:04;;;;;;;6.55;1.67;;;;;;;;;;8301764;28;20036;-61
2023/07/17 14:12:04;;;;;;;3.80;1.70;;;;;;;;;;8301378;28;20032;-61
2023/07/17 14:16:05;;;;;;;5.32;1.80;;;;;;;;;;8302546;28;20034;-61
2023/07/17 14:20:06;;;;;;;5.10;1.70;;;;;;;;;;8297650;28;20040;-61
2023/07/17 14:24:06;;;;;;;1.88;1.65;;;;;;;;;;8314748;28;20288;-61
2023/07/17 14:28:07;;;;;;;4.10;1.60;;;;;;;;;;8301723;28;20525;-61
2023/07/17 14:32:08;;;;;;;1.60;1.37;;;;;;;;;;8300801;28;20039;-61
2023/07/17 14:36:08;;;;;;;3.75;1.58;;;;;;;;;;8299519;28;20124;-61
2023/07/17 14:40:08;;;;;;;2.27;1.50;;;;;;;;;;8301398;28;20026;-61
2023/07/17 14:44:08;;;;;;;2.67;1.60;;;;;;;;;;8301446;28;20353;-61
2023/07/17 14:48:09;;;;;;;5.57;1.58;;;;;;;;;;8302658;28;20068;-61
2023/07/17 14:52:09;;;;;;;7.53;1.88;;;;;;;;;;8295579;28;20131;-61
2023/07/17 14:56:09;;;;;;;4.20;1.50;;;;;;;;;;8292093;28;20025;-60
2023/07/17 15:00:10;;;;;;;3.65;1.75;;;;;;;;;;8298820;28;20060;-60
2023/07/17 15:04:12;;;;;;;2.75;1.50;;;;;;;;;;8297706;28;20028;-60
2023/07/17 15:08:12;;;;;;;2.63;1.48;;;;;;;;;;8298314;28;20025;-60
2023/07/17 15:12:12;;;;;;;3.25;1.60;;;;;;;;;;8299325;28;20036;-60
2023/07/17 15:16:13;;;;;;;2.55;1.30;;;;;;;;;;8297482;28;20041;-60
2023/07/17 15:20:13;;;;;;;3.83;1.60;;;;;;;;;;8302356;28;20021;-60
2023/07/17 15:24:13;;;;;;;4.13;1.50;;;;;;;;;;8302622;28;20041;-61
2023/07/17 15:28:13;;;;;;;1.98;1.40;;;;;;;;;;8300968;28;20113;-60
2023/07/17 15:32:14;;;;;;;2.90;1.55;;;;;;;;;;8300113;28;20505;-60
2023/07/17 15:36:14;;;;;;;3.50;1.70;;;;;;;;;;8298549;28;20167;-61
2023/07/17 15:40:14;;;;;;;1.77;1.40;;;;;;;;;;8298059;28;20029;-61
2023/07/17 15:44:15;;;;;;;2.08;1.30;;;;;;;;;;8302322;28;20897;-61
2023/07/17 15:48:15;;;;;;;3.22;1.50;;;;;;;;;;8298240;28;20136;-61
2023/07/17 15:52:15;;;;;;;3.20;1.50;;;;;;;;;;8297998;28;20120;-61
2023/07/17 15:56:15;;;;;;;2.60;1.30;;;;;;;;;;8293687;28;20030;-61
2023/07/17 16:00:16;;;;;;;1.80;1.35;;;;;;;;;;8294225;28;20029;-61
2023/07/17 16:04:16;;;;;;;2.85;1.35;;;;;;;;;;8296621;28;20683;-61
2023/07/17 16:08:16;;;;;;;2.35;1.35;;;;;;;;;;8295611;28;20118;-60
2023/07/17 16:12:16;;;;;;;3.30;1.60;;;;;;;;;;8300447;28;20025;-61
2023/07/17 16:16:17;;;;;;;2.75;1.50;;;;;;;;;;8296449;28;20382;-60
2023/07/17 16:20:17;;;;;;;4.07;1.37;;;;;;;;;;8300476;28;20024;-60
2023/07/17 16:24:17;;;;;;;2.65;1.52;;;;;;;;;;8299362;28;20040;-60
2023/07/17 16:28:17;;;;;;;2.42;1.35;;;;;;;;;;8298731;28;20035;-60
2023/07/17 16:32:18;;;;;;;3.08;1.45;;;;;;;;;;8300426;28;20037;-60
2023/07/17 16:36:18;;;;;;;3.30;1.50;;;;;;;;;;8299488;28;20033;-60
2023/07/17 16:40:18;;;;;;;3.45;1.40;;;;;;;;;;8298592;28;20413;-60
2023/07/17 16:44:19;;;;;;;2.23;1.30;;;;;;;;;;8299664;28;20123;-60
2023/07/17 16:48:19;;;;;;;3.17;1.30;;;;;;;;;;8299952;28;20037;-59
2023/07/17 16:52:19;;;;;;;2.78;1.20;;;;;;;;;;8296917;28;20095;-60
2023/07/17 16:56:19;;;;;;;2.40;1.40;;;;;;;;;;8295678;28;20056;-61
2023/07/17 17:00:21;;;;;;;4.65;1.60;;;;;;;;;;8299754;28;20118;-60
2023/07/17 17:04:22;;;;;;;3.47;1.40;;;;;;;;;;8301006;28;20064;-60
2023/07/17 17:08:22;;;;;;;3.47;1.38;;;;;;;;;;8299357;28;20029;-61
2023/07/17 17:12:23;;;;;;;2.42;1.30;;;;;;;;;;8304528;28;20025;-60
2023/07/17 17:16:23;;;;;;;4.13;1.70;;;;;;;;;;8302383;28;20029;-61
2023/07/17 17:20:23;;;;;;;3.57;1.40;;;;;;;;;;8307860;28;20544;-60
2023/07/17 17:24:25;;;;;;;5.03;1.20;;;;;;;;;;8303469;28;20056;-61
2023/07/17 17:28:25;;;;;;;1.95;1.20;;;;;;;;;;8302862;28;20024;-60
2023/07/17 17:32:25;;;;;;;2.60;1.10;;;;;;;;;;8305243;28;20033;-60
2023/07/17 17:36:26;;;;;;;4.68;1.30;;;;;;;;;;8302573;28;20036;-60
2023/07/17 17:40:26;;;;;;;4.15;1.30;;;;;;;;;;8303695;28;20691;-60
2023/07/17 17:44:27;;;;;;;3.13;1.50;;;;;;;;;;8304314;28;20378;-60
2023/07/17 17:48:27;;;;;;;2.93;1.23;;;;;;;;;;8302240;28;20099;-60
2023/07/17 17:52:28;;;;;;;2.30;1.27;;;;;;;;;;8301149;28;20836;-60
2023/07/17 17:56:28;;;;;;;5.00;1.60;;;;;;;;;;8300125;28;20017;-60
2023/07/17 18:00:28;;;;;;;4.32;1.30;;;;;;;;;;8304279;28;20302;-61
2023/07/17 18:04:29;;;;;;;3.17;1.30;;;;;;;;;;8303810;28;20084;-60
2023/07/17 18:08:29;;;;;;;6.53;1.30;;;;;;;;;;8305170;28;20033;-60
2023/07/17 18:12:30;;;;;;;2.33;1.23;;;;;;;;;;8304132;28;20690;-60
2023/07/17 18:16:30;;;;;;;4.77;1.30;;;;;;;;;;8300080;28;20496;-60
2023/07/17 18:20:30;;;;;;;5.03;1.33;;;;;;;;;;8302669;28;20276;-59
2023/07/17 18:24:32;;;;;;;3.22;1.40;;;;;;;;;;8302501;28;20029;-59
2023/07/17 18:28:32;;;;;;;3.08;1.50;;;;;;;;;;8302620;28;20025;-60
2023/07/17 18:32:32;;;;;;;3.53;1.50;;;;;;;;;;8302082;28;20044;-60
2023/07/17 18:36:33;;;;;;;1.40;1.10;;;;;;;;;;8302900;28;20036;-60
2023/07/17 18:40:33;;;;;;;2.40;1.23;;;;;;;;;;8301606;28;20044;-61
2023/07/17 18:44:33;;;;;;;2.80;1.30;;;;;;;;;;8302359;28;20029;-60
2023/07/17 18:48:34;;;;;;;4.97;1.27;;;;;;;;;;8299575;28;20817;-59
2023/07/17 18:52:35;;;;;;;2.00;1.30;;;;;;;;;;8298296;28;20063;-60
2023/07/17 18:56:38;;;;;;;2.67;1.40;;;;;;;;;;8301263;28;20701;-60
2023/07/17 19:00:38;;;;;;;;;;;;;;;;;;8304143;28;20044;-60
2023/07/17 19:04:39;;;;;;;2.17;1.30;;;;;;;;;;8300905;28;19920;-60
2023/07/17 19:08:39;;;;;;;5.67;1.30;;;;;;;;;;8300224;28;20583;-61
2023/07/17 19:12:39;;;;;;;5.45;1.48;;;;;;;;;;8300490;28;20021;-61
2023/07/17 19:16:39;;;;;;;3.78;1.30;;;;;;;;;;8301466;28;20033;-61
2023/07/17 19:20:40;;;;;;;5.88;1.50;;;;;;;;;;8301490;28;20712;-61
2023/07/17 19:24:40;;;;;;;5.80;1.40;;;;;;;;;;8300204;28;20029;-61
2023/07/17 19:28:40;;;;;;;3.90;1.17;;;;;;;;;;8298366;28;20087;-61
2023/07/17 19:32:46;;;;;;;1.67;1.20;;;;;;;;;;8300223;28;20037;-61
2023/07/17 19:36:47;;;;;;;4.30;1.40;;;;;;;;;;8298211;28;20025;-61
2023/07/17 19:40:47;;;;;;;4.53;1.40;;;;;;;;;;8300537;28;20033;-61
2023/07/17 19:44:47;;;;;;;3.53;1.20;;;;;;;;;;8301007;28;20041;-61
2023/07/17 19:48:48;;;;;;;4.65;1.30;;;;;;;;;;8298170;28;20175;-61
2023/07/17 19:52:48;;;;;;;3.33;1.40;;;;;;;;;;8297023;28;20048;-61
2023/07/17 19:56:48;;;;;;;1.73;1.30;;;;;;;;;;8299357;28;20072;-61
2023/07/17 20:00:48;;;;;;;3.85;1.17;;;;;;;;;;8293187;28;20127;-61
2023/07/17 20:04:48;;;;;;;3.13;1.38;;;;;;;;;;8296001;28;20024;-61
2023/07/17 20:08:49;;;;;;;2.15;1.20;;;;;;;;;;8296635;28;20032;-61
2023/07/17 20:12:49;;;;;;;1.88;1.13;;;;;;;;;;8297606;28;20087;-61
2023/07/17 20:16:49;;;;;;;2.27;1.20;;;;;;;;;;8294821;28;20037;-61
2023/07/17 20:20:49;;;;;;;1.52;1.10;;;;;;;;;;8296826;28;20283;-61
2023/07/17 20:24:50;;;;;;;4.13;1.30;;;;;;;;;;8294380;28;20037;-61
2023/07/17 20:28:50;;;;;;;3.50;1.13;;;;;;;;;;8298274;28;20017;-61
2023/07/17 20:32:50;;;;;;;3.78;1.20;;;;;;;;;;8297067;28;20130;-61
2023/07/17 20:36:50;;;;;;;2.93;1.00;;;;;;;;;;8299099;28;20025;-61
2023/07/17 20:40:51;;;;;;;2.55;1.20;;;;;;;;;;8297131;28;20025;-61
2023/07/17 20:44:51;;;;;;;2.00;1.15;;;;;;;;;;8295828;28;20071;-61
2023/07/17 20:48:52;;;;;;;7.53;1.33;;;;;;;;;;8297724;28;20144;-61
2023/07/17 20:52:52;;;;;;;3.92;1.35;;;;;;;;;;8303457;28;20064;-61
2023/07/17 20:56:52;;;;;;;3.08;1.13;;;;;;;;;;8302610;28;20102;-61
2023/07/17 21:00:58;;;;;;;2.90;1.17;;;;;;;;;;8298964;28;20122;-61
2023/07/17 21:04:58;;;;;;;3.58;1.30;;;;;;;;;;8303657;28;21134;-61
2023/07/17 21:08:58;;;;;;;3.28;1.10;;;;;;;;;;8299914;28;20020;-61
2023/07/17 21:13:00;;;;;;;1.70;1.02;;;;;;;;;;8298977;28;20041;-61
2023/07/17 21:17:01;;;;;;;2.15;1.20;;;;;;;;;;8299017;28;20677;-61
2023/07/17 21:21:01;;;;;;;2.80;1.10;;;;;;;;;;8299509;28;20086;-61
2023/07/17 21:25:01;;;;;;;1.40;1.05;;;;;;;;;;8299390;28;20102;-61
2023/07/17 21:29:03;;;;;;;1.90;1.10;;;;;;;;;;8298490;28;20021;-61
2023/07/17 21:33:04;;;;;;;2.13;1.00;;;;;;;;;;8299778;28;20268;-61
2023/07/17 21:37:04;;;;;;;1.73;1.00;;;;;;;;;;8299717;28;20150;-61
2023/07/17 21:41:07;;;;;;;4.60;1.23;;;;;;;;;;8301247;28;20029;-61
2023/07/17 21:45:07;;;;;;;3.25;1.13;;;;;;;;;;8300259;28;20026;-61
2023/07/17 21:49:08;;;;;;;3.45;1.02;;;;;;;;;;8300770;28;20064;-61
2023/07/17 21:53:13;;;;;;;1.90;1.10;;;;;;;;;;8302438;28;20082;-61
2023/07/17 21:57:19;;;;;;;4.15;1.40;;;;;;;;;;8303688;28;20025;-61
2023/07/17 22:01:19;;;;;;;1.75;1.00;;;;;;;;;;8307955;28;20037;-61
2023/07/17 22:05:19;;;;;;;3.53;1.10;;;;;;;;;;8306118;28;20036;-61
2023/07/17 22:09:20;;;;;;;1.80;0.90;;;;;;;;;;8302133;28;20036;-61
2023/07/17 22:13:20;;;;;;;4.85;1.20;;;;;;;;;;8306426;28;21042;-62
2023/07/17 22:17:21;;;;;;;5.88;1.30;;;;;;;;;;8303733;28;20040;-61
2023/07/17 22:21:21;;;;;;;3.67;1.30;;;;;;;;;;8309128;28;20116;-61
2023/07/17 22:25:22;;;;;;;2.17;1.30;;;;;;;;;;8307037;28;20049;-61
2023/07/17 22:29:22;;;;;;;2.57;1.23;;;;;;;;;;8306263;28;20028;-61
2023/07/17 22:33:23;;;;;;;2.35;1.38;;;;;;;;;;8301861;28;20047;-61
2023/07/17 22:37:24;;;;;;;2.90;1.27;;;;;;;;;;8304469;28;20056;-61
2023/07/17 22:41:24;;;;;;;3.72;1.10;;;;;;;;;;8304170;28;20033;-61
2023/07/17 22:45:24;;;;;;;1.88;1.00;;;;;;;;;;8304474;28;20535;-61
2023/07/17 22:49:30;;;;;;;1.77;1.00;;;;;;;;;;8305807;28;20021;-61
2023/07/17 22:53:32;;;;;;;3.83;1.50;;;;;;;;;;8308895;28;20025;-61
2023/07/17 22:57:33;;;;;;;1.80;1.25;;;;;;;;;;8305304;28;20025;-61
2023/07/17 23:01:34;;;;;;;4.00;1.30;;;;;;;;;;8305215;28;20030;-61
2023/07/17 23:05:35;;;;;;;4.32;1.20;;;;;;;;;;8303756;28;20055;-61
2023/07/17 23:09:35;;;;;;;3.57;1.53;;;;;;;;;;8304555;28;20025;-61
2023/07/17 23:13:37;;;;;;;1.65;1.50;;;;;;;;;;8302975;28;20025;-61
2023/07/17 23:17:37;;;;;;;2.63;1.20;;;;;;;;;;8303606;28;20674;-61
2023/07/17 23:21:37;;;;;;;3.40;1.20;;;;;;;;;;8302298;28;20035;-61
2023/07/17 23:25:41;;;;;;;2.83;1.40;;;;;;;;;;8301630;28;20914;-61
2023/07/17 23:29:41;;;;;;;3.15;1.40;;;;;;;;;;8302436;28;20031;-60
2023/07/17 23:33:41;;;;;;;3.15;1.40;;;;;;;;;;8305223;28;20132;-60
2023/07/17 23:37:42;;;;;;;3.42;1.50;;;;;;;;;;8306597;28;20025;-60
2023/07/17 23:41:42;;;;;;;3.00;1.70;;;;;;;;;;8302631;28;20063;-60
2023/07/17 23:45:42;;;;;;;3.47;1.60;;;;;;;;;;8300916;28;20045;-60
2023/07/17 23:49:42;;;;;;;4.50;1.58;;;;;;;;;;8302870;28;20287;-60
2023/07/17 23:53:43;;;;;;;2.23;1.40;;;;;;;;;;8305909;28;20021;-60
2023/07/17 23:57:46;;;;;;;3.88;1.75;;;;;;;;;;8302380;28;20026;-60
